Time;durP1;ratioP1;P1;durP2;ratioP2;P2;SDS_P1;SDS_P2;PMS_P1;PMS_P2;Temp;Humidity;BMP_temperature;BMP_pressure;BME280_temperature;BME280_humidity;BME280_pressure;Samples;Min_cycle;Max_cycle;Signal;HPM_P1;HPM_P2
2023/01/20 00:00:40;;;;;;;36.15;17.63;;;;;;;0.70;72.65;97849.00;5072665;28;20032;-72
2023/01/20 00:03:06;;;;;;;36.58;17.42;;;;;;;0.68;73.20;97848.44;5071290;28;20040;-73
2023/01/20 00:05:31;;;;;;;39.47;19.00;;;;;;;0.65;73.07;97840.84;5071562;28;20037;-75
2023/01/20 00:07:59;;;;;;;55.80;21.83;;;;;;;0.58;72.72;97833.75;5070329;28;20045;-74
2023/01/20 00:10:25;;;;;;;52.45;21.92;;;;;;;0.54;72.43;97829.06;5071369;28;20028;-73
2023/01/20 00:12:50;;;;;;;55.88;22.48;;;;;;;0.49;72.25;97829.00;5071405;28;20493;-73
2023/01/20 00:15:16;;;;;;;48.95;22.20;;;;;;;0.42;72.27;97837.25;5071153;28;20027;-74
2023/01/20 00:17:41;;;;;;;48.17;21.35;;;;;;;0.35;72.60;97834.75;5071270;28;20021;-74
2023/01/20 00:20:07;;;;;;;47.90;22.63;;;;;;;0.29;72.48;97838.41;5071069;28;20108;-74
2023/01/20 00:22:33;;;;;;;47.55;21.60;;;;;;;0.26;72.47;97830.81;5070878;28;20060;-74
2023/01/20 00:24:58;;;;;;;47.70;21.77;;;;;;;0.21;72.68;97831.50;5070567;28;20097;-73
2023/01/20 00:27:24;;;;;;;48.05;21.67;;;;;;;0.16;72.55;97828.75;5052582;28;20074;-73
2023/01/20 00:29:50;;;;;;;40.60;19.42;;;;;;;0.09;72.19;97828.91;5070640;28;20466;-74
2023/01/20 00:32:15;;;;;;;40.90;21.13;;;;;;;0.04;72.53;97841.47;5070700;28;20504;-73
2023/01/20 00:34:40;;;;;;;45.90;20.35;;;;;;;-0.03;72.69;97839.75;5070576;28;20063;-73
2023/01/20 00:37:06;;;;;;;39.10;20.02;;;;;;;-0.06;72.44;97837.53;5070414;28;20028;-73
2023/01/20 00:39:31;;;;;;;37.63;19.55;;;;;;;-0.11;72.06;97847.44;5070879;28;20555;-73
2023/01/20 00:41:57;;;;;;;41.67;20.77;;;;;;;-0.15;72.70;97857.84;5052859;28;20029;-73
2023/01/20 00:44:22;;;;;;;39.85;19.75;;;;;;;-0.18;72.36;97844.84;5070324;28;20473;-73
2023/01/20 00:46:47;;;;;;;39.17;20.20;;;;;;;-0.18;72.87;97852.94;5052762;28;20466;-75
2023/01/20 00:49:14;;;;;;;45.65;21.10;;;;;;;-0.24;72.81;97840.47;5070469;28;20064;-73
2023/01/20 00:51:40;;;;;;;42.13;21.58;;;;;;;-0.25;72.28;97846.91;5070528;28;20032;-72
2023/01/20 00:54:05;;;;;;;42.20;21.25;;;;;;;-0.28;72.59;97842.00;5070792;28;20414;-73
2023/01/20 00:56:30;;;;;;;42.90;21.95;;;;;;;-0.31;72.76;97843.28;5070526;28;20028;-72
2023/01/20 00:58:56;;;;;;;43.63;21.00;;;;;;;-0.35;72.54;97845.66;5052273;28;20020;-74
2023/01/20 01:01:22;;;;;;;50.85;23.25;;;;;;;-0.37;72.70;97849.63;5069660;28;20067;-74
2023/01/20 01:03:47;;;;;;;53.88;24.63;;;;;;;-0.42;72.36;97852.25;5068659;28;20095;-74
2023/01/20 01:06:16;;;;;;;52.45;23.42;;;;;;;-0.47;71.98;97861.84;5070099;28;20036;-74
2023/01/20 01:08:43;;;;;;;48.28;22.58;;;;;;;-0.52;72.01;97871.69;5069516;28;20059;-74
2023/01/20 01:11:10;;;;;;;55.17;25.65;;;;;;;-0.63;71.91;97886.84;5070845;28;20016;-74
2023/01/20 01:13:37;;;;;;;59.80;27.27;;;;;;;-0.77;72.01;97887.09;5070262;28;20067;-74
2023/01/20 01:16:04;;;;;;;57.70;26.00;;;;;;;-0.83;72.38;97885.38;5070080;28;20025;-75
2023/01/20 01:18:30;;;;;;;59.88;26.52;;;;;;;-0.90;72.17;97888.16;5070015;28;20024;-74
2023/01/20 01:20:55;;;;;;;52.47;26.27;;;;;;;-0.88;72.42;97884.41;5070164;28;20016;-74
2023/01/20 01:23:21;;;;;;;56.78;27.73;;;;;;;-0.88;72.26;97895.19;5070388;28;20016;-74
2023/01/20 01:25:46;;;;;;;58.40;27.83;;;;;;;-0.92;72.48;97900.22;5069790;28;20470;-73
2023/01/20 01:28:11;;;;;;;51.92;25.52;;;;;;;-0.94;72.74;97905.84;5069941;28;20056;-74
2023/01/20 01:30:37;;;;;;;44.63;22.80;;;;;;;-0.98;71.98;97912.75;5069319;28;20050;-75
2023/01/20 01:33:02;;;;;;;43.03;22.30;;;;;;;-1.05;72.27;97923.63;5069667;28;20161;-74
2023/01/20 01:35:28;;;;;;;44.03;22.40;;;;;;;-1.06;72.28;97934.66;5069640;28;20027;-74
2023/01/20 01:37:53;;;;;;;44.42;21.98;;;;;;;-1.06;72.28;97942.72;5069038;28;20082;-74
2023/01/20 01:40:19;;;;;;;44.75;22.63;;;;;;;-1.06;72.59;97948.09;5069542;28;20598;-75
2023/01/20 01:42:44;;;;;;;54.20;25.35;;;;;;;-1.06;72.59;97951.59;5069116;28;20553;-74
2023/01/20 01:45:09;;;;;;;55.13;26.45;;;;;;;-1.05;72.48;97947.84;5069451;28;20024;-75
2023/01/20 01:47:38;;;;;;;60.13;27.75;;;;;;;-1.04;72.54;97932.53;5069349;28;20378;-74
2023/01/20 01:50:05;;;;;;;57.22;27.55;;;;;;;-1.04;72.45;97919.09;5069592;28;20020;-74
2023/01/20 01:52:32;;;;;;;56.72;27.45;;;;;;;-1.05;72.90;97912.06;5066920;28;20031;-74
2023/01/20 01:54:58;;;;;;;68.78;30.55;;;;;;;-1.06;72.33;97911.22;5067494;28;20028;-74
2023/01/20 01:57:24;;;;;;;71.00;31.67;;;;;;;-1.04;72.32;97919.09;5069447;28;20028;-74
2023/01/20 01:59:50;;;;;;;65.40;29.35;;;;;;;-1.10;72.70;97928.09;5069028;28;20055;-73
2023/01/20 02:02:15;;;;;;;64.10;29.27;;;;;;;-1.15;72.03;97928.78;5068264;28;20085;-74
2023/01/20 02:04:41;;;;;;;64.53;30.15;;;;;;;-1.18;72.27;97925.75;5069044;28;20036;-73
2023/01/20 02:07:17;;;;;;;68.97;29.52;;;;;;;-1.21;72.11;97922.47;5069049;28;20186;-74
2023/01/20 02:09:43;;;;;;;62.03;28.60;;;;;;;-1.26;72.35;97916.94;5069026;28;20079;-74
2023/01/20 02:12:13;;;;;;;56.75;26.55;;;;;;;-1.27;72.51;97918.00;5069185;28;20463;-74
2023/01/20 02:14:55;;;;;;;49.15;24.05;;;;;;;-1.27;72.36;97927.97;5069277;28;20111;-74
2023/01/20 02:17:32;;;;;;;50.92;25.02;;;;;;;-1.30;72.15;97928.44;5067260;28;20036;-74
2023/01/20 02:20:19;;;;;;;49.75;23.15;;;;;;;-1.33;72.31;97923.50;5067350;28;20054;-74
2023/01/20 02:22:47;;;;;;;47.30;23.08;;;;;;;-1.38;72.10;97926.88;5068455;28;20436;-74
2023/01/20 02:25:19;;;;;;;45.28;22.50;;;;;;;-1.41;72.14;97932.72;5067461;28;20472;-74
2023/01/20 02:28:16;;;;;;;44.63;22.80;;;;;;;-1.41;72.21;97935.41;5068950;28;20850;-74
2023/01/20 02:31:13;;;;;;;46.72;21.80;;;;;;;-1.46;71.85;97914.59;5025219;28;20051;-74
2023/01/20 02:33:57;;;;;;;52.78;23.27;;;;;;;-1.52;72.13;97913.66;5068774;28;20025;-74
2023/01/20 02:36:31;;;;;;;45.50;21.60;;;;;;;-1.55;72.17;97908.72;5067989;28;20029;-74
2023/01/20 02:39:16;;;;;;;45.00;21.92;;;;;;;-1.56;72.35;97909.78;5066860;28;20166;-74
2023/01/20 02:41:52;;;;;;;45.85;22.38;;;;;;;-1.57;72.27;97902.78;5049690;28;20036;-74
2023/01/20 02:44:56;;;;;;;44.50;22.50;;;;;;;-1.63;72.46;97881.38;5066676;28;20032;-75
2023/01/20 02:47:21;;;;;;;48.90;24.05;;;;;;;-1.67;72.14;97873.75;5067829;28;20029;-74
2023/01/20 02:50:05;;;;;;;50.45;24.70;;;;;;;-1.72;72.31;97883.56;5072837;28;20123;-74
2023/01/20 02:52:35;;;;;;;49.47;23.67;;;;;;;-1.80;72.17;97872.06;5072221;28;20174;-74
2023/01/20 02:55:06;;;;;;;43.70;21.38;;;;;;;-1.83;72.39;97890.53;5072686;28;20028;-75
2023/01/20 02:57:40;;;;;;;52.80;22.73;;;;;;;-1.84;72.37;97894.28;5072849;28;20023;-74
2023/01/20 03:00:17;;;;;;;43.22;21.55;;;;;;;-1.83;72.44;97914.75;5053472;28;20583;-74
2023/01/20 03:02:46;;;;;;;49.67;22.63;;;;;;;-1.85;72.32;97914.16;5071185;28;20024;-74
2023/01/20 03:05:17;;;;;;;50.28;24.45;;;;;;;-1.85;72.39;97911.47;5072137;28;20065;-73
2023/01/20 03:07:44;;;;;;;46.17;23.40;;;;;;;-1.85;72.47;97923.03;5072068;28;20509;-74
2023/01/20 03:10:14;;;;;;;49.78;24.25;;;;;;;-1.84;72.46;97915.78;5072477;28;20098;-74
2023/01/20 03:12:49;;;;;;;;;;;;;;;-1.79;72.41;97918.63;5073275;28;20024;-74
2023/01/20 03:15:15;;;;;;;43.65;20.55;;;;;;;-1.79;72.24;97915.91;5072550;28;20393;-74
2023/01/20 03:17:40;;;;;;;41.50;21.02;;;;;;;-1.79;72.50;97921.31;5072462;28;20123;-75
2023/01/20 03:20:07;;;;;;;42.78;20.23;;;;;;;-1.77;72.46;97919.22;5071996;28;20912;-73
2023/01/20 03:22:32;;;;;;;38.63;19.27;;;;;;;-1.77;72.40;97900.38;5072663;28;20017;-73
2023/01/20 03:24:58;;;;;;;42.55;21.33;;;;;;;-1.78;72.32;97917.56;5072849;28;20031;-74
2023/01/20 03:27:25;;;;;;;63.00;27.30;;;;;;;-1.78;72.21;97922.09;5072729;28;20024;-74
2023/01/20 03:29:51;;;;;;;62.47;26.90;;;;;;;-1.82;72.18;97932.50;5072534;28;20024;-74
2023/01/20 03:32:21;;;;;;;63.55;27.23;;;;;;;-1.85;72.26;97933.81;5071931;28;20020;-74
2023/01/20 03:34:46;;;;;;;94.00;33.92;;;;;;;-1.86;72.08;97934.00;5054668;28;20025;-74
2023/01/20 03:37:12;;;;;;;85.82;32.30;;;;;;;-1.86;71.92;97945.59;5072457;28;20019;-72
2023/01/20 03:39:38;;;;;;;77.95;32.55;;;;;;;-1.90;72.21;97947.09;5072434;28;20036;-73
2023/01/20 03:42:43;;;;;;;63.75;27.75;;;;;;;-1.93;71.87;97952.09;5072490;28;20020;-72
2023/01/20 03:45:16;;;;;;;56.13;25.88;;;;;;;-1.96;72.12;97951.50;5021495;28;20036;-73
2023/01/20 03:48:06;;;;;;;59.72;27.45;;;;;;;-1.96;72.02;97964.13;5072735;28;20427;-72
2023/01/20 03:50:46;;;;;;;62.38;28.02;;;;;;;-1.96;72.00;97966.81;5054606;28;20382;-72
2023/01/20 03:53:44;;;;;;;54.78;26.55;;;;;;;-1.96;72.30;97966.81;5072354;28;20012;-73
2023/01/20 03:56:27;;;;;;;62.15;27.33;;;;;;;-1.94;72.24;97956.66;5071862;28;20047;-72
2023/01/20 03:58:56;;;;;;;64.63;28.52;;;;;;;-1.93;72.04;97969.06;5071413;28;20025;-72
2023/01/20 04:01:28;;;;;;;63.03;28.38;;;;;;;-1.95;72.24;97963.09;5071628;28;20020;-73
2023/01/20 04:03:53;;;;;;;69.60;30.17;;;;;;;-1.95;71.81;97961.19;5070922;28;20070;-73
2023/01/20 04:06:25;;;;;;;68.43;30.85;;;;;;;-1.94;72.03;97962.03;5071713;28;20024;-73
2023/01/20 04:08:55;;;;;;;76.05;31.45;;;;;;;-1.93;72.07;97962.84;5072128;28;20041;-73
2023/01/20 04:11:20;;;;;;;70.90;31.25;;;;;;;-1.93;72.26;97973.59;5071842;28;20028;-72
2023/01/20 04:13:46;;;;;;;72.05;30.80;;;;;;;-1.94;72.11;97978.16;5071916;28;20024;-73
2023/01/20 04:16:15;;;;;;;65.05;30.08;;;;;;;-1.98;72.14;97977.78;5072025;28;20021;-73
2023/01/20 04:18:44;;;;;;;64.50;30.23;;;;;;;-1.97;72.03;97986.69;5071299;28;20036;-73
2023/01/20 04:21:15;;;;;;;69.85;31.17;;;;;;;-1.99;72.13;97986.09;5071807;28;20068;-72
2023/01/20 04:23:47;;;;;;;63.95;27.80;;;;;;;-1.99;71.95;97988.78;5071978;28;20103;-73
2023/01/20 04:26:12;;;;;;;77.20;31.40;;;;;;;-2.01;71.82;97993.53;5071653;28;20025;-72
2023/01/20 04:28:37;;;;;;;74.95;33.78;;;;;;;-2.03;72.10;98001.00;5071576;28;20477;-73
2023/01/20 04:31:03;;;;;;;126.15;45.50;;;;;;;-2.06;71.86;98006.84;5071287;28;20021;-73
2023/01/20 04:33:28;;;;;;;113.75;41.50;;;;;;;-2.06;72.11;98005.00;5070675;28;20390;-73
2023/01/20 04:35:53;;;;;;;120.53;44.55;;;;;;;-2.02;72.12;98010.72;5071310;28;20020;-72
2023/01/20 04:38:19;;;;;;;161.63;55.28;;;;;;;-2.01;72.35;98015.03;5073348;28;20371;-74
2023/01/20 04:40:45;;;;;;;146.95;51.35;;;;;;;-2.00;72.10;98014.00;5061171;28;20035;-73
2023/01/20 04:43:11;;;;;;;142.32;47.95;;;;;;;-2.01;72.02;98006.97;5067229;28;20470;-73
2023/01/20 04:45:36;;;;;;;154.75;50.17;;;;;;;-2.00;71.89;98011.31;5071646;28;20029;-72
2023/01/20 04:48:06;;;;;;;167.15;51.35;;;;;;;-1.98;71.98;98006.53;5071978;28;20024;-73
2023/01/20 04:50:31;;;;;;;144.52;47.75;;;;;;;-1.96;72.06;98001.75;5064125;28;20033;-73
2023/01/20 04:52:57;;;;;;;148.73;46.38;;;;;;;-1.92;72.30;98002.94;5052975;28;20475;-73
2023/01/20 04:55:25;;;;;;;163.73;48.65;;;;;;;-1.89;72.21;98004.34;5066082;28;20107;-72
2023/01/20 04:57:50;;;;;;;162.48;46.92;;;;;;;-1.87;72.28;98007.63;5072325;28;20033;-72
2023/01/20 05:00:18;;;;;;;154.05;46.25;;;;;;;-1.84;72.06;98012.56;5070850;28;20107;-73
2023/01/20 05:02:45;;;;;;;146.25;47.05;;;;;;;-1.82;72.51;98015.84;5059700;28;20554;-72
2023/01/20 05:05:11;;;;;;;123.80;40.65;;;;;;;-1.80;72.31;98017.25;5053683;28;20035;-73
2023/01/20 05:07:36;;;;;;;101.60;39.15;;;;;;;-1.74;72.40;98028.16;5044762;28;20487;-73
2023/01/20 05:10:01;;;;;;;92.57;37.55;;;;;;;-1.72;72.33;98028.75;5075651;28;20033;-73
2023/01/20 05:12:27;;;;;;;97.82;39.83;;;;;;;-1.70;72.35;98030.16;5069639;28;20085;-73
2023/01/20 05:14:52;;;;;;;109.50;45.25;;;;;;;-1.65;72.50;98038.38;5065464;28;20020;-73
2023/01/20 05:17:17;;;;;;;113.47;46.72;;;;;;;-1.59;72.51;98042.03;5077819;28;20390;-73
2023/01/20 05:19:43;;;;;;;111.57;45.90;;;;;;;-1.52;72.66;98041.91;5060891;28;20036;-73
2023/01/20 05:22:09;;;;;;;120.40;48.55;;;;;;;-1.45;72.84;98052.59;5052785;28;20063;-72
2023/01/20 05:24:35;;;;;;;114.45;45.53;;;;;;;-1.38;72.73;98050.63;5051885;28;20512;-73
2023/01/20 05:27:00;;;;;;;122.68;49.08;;;;;;;-1.34;72.38;98043.72;5058527;28;20024;-73
2023/01/20 05:29:27;;;;;;;106.13;44.53;;;;;;;-1.29;72.78;98030.41;5069931;28;20090;-73
2023/01/20 05:31:53;;;;;;;93.43;39.63;;;;;;;-1.24;73.02;98025.16;5052193;28;20021;-73
2023/01/20 05:34:18;;;;;;;95.45;37.50;;;;;;;-1.18;72.85;98020.72;5051984;28;20559;-73
2023/01/20 05:36:43;;;;;;;82.03;32.65;;;;;;;-1.14;73.15;98026.50;5054238;28;20028;-73
2023/01/20 05:39:09;;;;;;;91.80;38.03;;;;;;;-1.12;72.85;98029.78;5054270;28;20021;-73
2023/01/20 05:41:34;;;;;;;103.07;43.53;;;;;;;-1.11;72.99;98034.09;5063307;28;20056;-73
2023/01/20 05:44:00;;;;;;;91.53;38.13;;;;;;;-1.08;73.07;98033.66;5060803;28;20070;-73
2023/01/20 05:46:25;;;;;;;97.80;37.25;;;;;;;-1.05;73.04;98036.69;5070482;28;20381;-73
2023/01/20 05:48:50;;;;;;;104.93;41.78;;;;;;;-1.03;73.02;98046.41;5071667;28;20678;-73
2023/01/20 05:51:16;;;;;;;91.35;38.38;;;;;;;-1.03;72.66;98046.41;5065025;28;20031;-72
2023/01/20 05:53:41;;;;;;;76.10;33.20;;;;;;;-1.03;73.01;98052.63;5069519;28;20104;-73
2023/01/20 05:56:07;;;;;;;75.85;30.30;;;;;;;-1.03;72.78;98051.78;5054065;28;20025;-73
2023/01/20 05:58:32;;;;;;;83.22;33.85;;;;;;;-1.03;73.30;98047.22;5055450;28;20029;-73
2023/01/20 06:01:09;;;;;;;144.77;46.45;;;;;;;-1.03;72.60;98046.41;5070219;28;20085;-73
2023/01/20 06:03:35;;;;;;;155.13;48.72;;;;;;;-1.00;73.06;98056.69;5059266;28;20033;-73
2023/01/20 06:06:02;;;;;;;163.32;50.35;;;;;;;-1.03;72.98;98051.78;5067157;28;20028;-73
2023/01/20 06:08:28;;;;;;;149.18;47.50;;;;;;;-1.04;72.51;98056.34;5069387;28;20184;-73
2023/01/20 06:10:53;;;;;;;128.88;43.53;;;;;;;-1.06;72.66;98063.84;5059683;28;20781;-73
2023/01/20 06:13:19;;;;;;;226.48;63.33;;;;;;;-1.08;72.50;98065.94;5067911;28;20756;-74
2023/01/20 06:15:49;;;;;;;234.60;70.13;;;;;;;-1.10;72.76;98068.84;5062174;28;20383;-73
2023/01/20 06:18:14;;;;;;;;;;;;;;;-1.11;72.95;98069.09;5066012;28;20036;-72
2023/01/20 06:20:39;;;;;;;160.77;52.63;;;;;;;-1.11;73.20;98074.47;5069259;28;20066;-73
2023/01/20 06:23:05;;;;;;;216.15;68.50;;;;;;;-1.14;72.38;98083.00;5055473;28;20045;-73
2023/01/20 06:25:30;;;;;;;184.98;54.97;;;;;;;-1.18;72.58;98084.50;5061341;28;20043;-73
2023/01/20 06:27:55;;;;;;;182.95;56.25;;;;;;;-1.22;72.41;98082.28;5048937;28;20382;-73
2023/01/20 06:30:21;;;;;;;116.60;44.75;;;;;;;-1.23;72.83;98079.81;5061954;28;20130;-72
2023/01/20 06:32:47;;;;;;;101.63;41.20;;;;;;;-1.25;72.45;98080.03;5066162;28;20028;-73
2023/01/20 06:35:12;;;;;;;100.28;39.30;;;;;;;-1.28;72.43;98088.56;5061215;28;20423;-73
2023/01/20 06:37:38;;;;;;;91.90;36.15;;;;;;;-1.28;72.80;98090.44;5066695;28;20102;-74
2023/01/20 06:40:04;;;;;;;92.28;36.95;;;;;;;-1.32;72.57;98091.94;5070654;28;20367;-73
2023/01/20 06:42:30;;;;;;;89.28;35.95;;;;;;;-1.36;72.52;98097.78;5070785;28;20504;-74
2023/01/20 06:44:56;;;;;;;100.68;41.10;;;;;;;-1.35;72.55;98093.22;5068055;28;20028;-73
2023/01/20 06:47:21;;;;;;;129.77;48.60;;;;;;;-1.37;72.58;98098.00;5054352;28;20086;-72
2023/01/20 06:49:47;;;;;;;124.05;46.40;;;;;;;-1.37;72.47;98093.44;5067160;28;20120;-72
2023/01/20 06:52:12;;;;;;;126.95;45.58;;;;;;;-1.36;72.37;98094.25;5069397;28;20024;-72
2023/01/20 06:54:37;;;;;;;97.13;41.55;;;;;;;-1.35;72.59;98095.91;5065837;28;20486;-73
2023/01/20 06:57:03;;;;;;;92.55;40.83;;;;;;;-1.31;72.48;98096.28;5057132;28;20108;-73
2023/01/20 06:59:28;;;;;;;84.82;36.47;;;;;;;-1.28;72.67;98109.28;5068616;28;20036;-73
2023/01/20 07:01:53;;;;;;;75.30;33.45;;;;;;;-1.25;72.77;98112.31;5067481;28;20028;-73
2023/01/20 07:04:19;;;;;;;70.20;30.17;;;;;;;-1.20;73.04;98127.78;5067901;28;20025;-73
2023/01/20 07:06:44;;;;;;;59.72;27.75;;;;;;;-1.16;72.66;98122.78;5055732;28;20067;-73
2023/01/20 07:09:11;;;;;;;60.45;25.90;;;;;;;-1.14;72.76;98126.06;5085804;28;20105;-72
2023/01/20 07:11:37;;;;;;;51.97;24.13;;;;;;;-1.10;72.98;98121.88;5069764;28;20503;-72
2023/01/20 07:14:04;;;;;;;55.88;25.08;;;;;;;-1.06;72.94;98114.97;5069221;28;20025;-73
2023/01/20 07:16:29;;;;;;;52.88;24.70;;;;;;;-1.02;72.90;98118.88;5056998;28;20082;-74
2023/01/20 07:18:55;;;;;;;55.63;26.27;;;;;;;-0.99;72.95;98115.69;5069784;28;20028;-75
2023/01/20 07:21:21;;;;;;;54.00;24.92;;;;;;;-0.94;72.85;98125.78;5048903;28;20432;-74
2023/01/20 07:23:47;;;;;;;53.90;24.55;;;;;;;-0.91;73.03;98120.75;5067418;28;20035;-74
2023/01/20 07:26:15;;;;;;;54.65;25.33;;;;;;;-0.85;73.11;98123.56;5067653;28;20028;-74
2023/01/20 07:28:41;;;;;;;63.92;31.50;;;;;;;-0.81;72.94;98130.16;5069947;28;20108;-73
2023/01/20 07:31:07;;;;;;;60.28;29.35;;;;;;;-0.76;72.91;98128.38;5069660;28;20491;-74
2023/01/20 07:33:33;;;;;;;63.33;28.60;;;;;;;-0.73;73.00;98132.50;5069696;28;20111;-72
2023/01/20 07:36:00;;;;;;;61.00;29.60;;;;;;;-0.67;73.28;98133.44;5072647;28;20107;-71
2023/01/20 07:38:25;;;;;;;67.55;34.58;;;;;;;-0.64;73.02;98135.69;5072209;28;20046;-73
2023/01/20 07:40:51;;;;;;;78.55;35.72;;;;;;;-0.61;73.19;98136.03;5072913;28;20468;-74
2023/01/20 07:43:17;;;;;;;77.95;36.40;;;;;;;-0.57;73.00;98147.19;5055166;28;20024;-73
2023/01/20 07:45:43;;;;;;;89.65;42.75;;;;;;;-0.53;73.19;98142.13;5071409;28;20032;-73
2023/01/20 07:48:08;;;;;;;108.55;45.58;;;;;;;-0.50;73.16;98147.06;5071797;28;20497;-73
2023/01/20 07:50:34;;;;;;;93.78;40.35;;;;;;;-0.50;73.08;98147.06;5072807;28;20111;-73
2023/01/20 07:53:00;;;;;;;83.63;37.05;;;;;;;-0.47;72.90;98154.69;5072309;28;20024;-73
2023/01/20 07:55:25;;;;;;;82.88;35.45;;;;;;;-0.46;73.36;98146.38;5072199;28;20123;-73
2023/01/20 07:57:51;;;;;;;81.90;37.38;;;;;;;-0.44;73.17;98151.53;5072133;28;20032;-73
2023/01/20 08:00:17;;;;;;;72.07;34.30;;;;;;;-0.46;73.18;98150.94;5071791;28;20028;-73
2023/01/20 08:02:43;;;;;;;84.75;37.70;;;;;;;-0.49;73.06;98152.25;5071639;28;20021;-76
2023/01/20 08:05:08;;;;;;;68.70;32.47;;;;;;;-0.51;73.29;98148.94;5071860;28;20025;-75
2023/01/20 08:07:35;;;;;;;64.60;29.58;;;;;;;-0.55;72.63;98153.16;5071085;28;20025;-73
2023/01/20 08:10:00;;;;;;;70.47;30.83;;;;;;;-0.58;73.25;98158.16;5070532;28;20497;-73
2023/01/20 08:12:27;;;;;;;59.75;26.38;;;;;;;-0.60;73.03;98164.59;5052000;28;20039;-75
2023/01/20 08:14:54;;;;;;;69.38;28.60;;;;;;;-0.64;72.95;98163.44;5069103;28;20017;-75
2023/01/20 08:17:19;;;;;;;66.72;28.73;;;;;;;-0.67;72.87;98171.16;5068124;28;20025;-75
2023/01/20 08:19:45;;;;;;;62.17;27.30;;;;;;;-0.70;72.97;98175.16;5066650;28;20033;-76
2023/01/20 08:22:10;;;;;;;57.97;26.92;;;;;;;-0.71;73.07;98180.75;5071191;28;20042;-75
2023/01/20 08:24:35;;;;;;;60.83;26.58;;;;;;;-0.73;72.93;98186.38;5054150;28;20434;-75
2023/01/20 08:27:01;;;;;;;61.78;26.65;;;;;;;-0.76;73.19;98190.31;5071453;28;20081;-75
2023/01/20 08:29:26;;;;;;;62.00;27.02;;;;;;;-0.79;73.18;98189.97;5072676;28;20051;-74
2023/01/20 08:31:52;;;;;;;58.53;26.30;;;;;;;-0.79;73.22;98193.47;5072297;28;20028;-76
2023/01/20 08:34:17;;;;;;;60.65;26.85;;;;;;;-0.79;73.04;98198.88;5071210;28;20048;-75
2023/01/20 08:36:44;;;;;;;60.65;25.15;;;;;;;-0.75;73.14;98204.63;5072232;28;20033;-73
2023/01/20 08:39:12;;;;;;;51.10;22.80;;;;;;;-0.75;73.45;98205.44;5068675;28;20055;-76
2023/01/20 08:41:40;;;;;;;53.72;23.60;;;;;;;-0.73;73.36;98205.22;5069312;28;20510;-75
2023/01/20 08:44:07;;;;;;;50.78;23.48;;;;;;;-0.68;73.43;98212.59;5069142;28;20021;-75
2023/01/20 08:46:33;;;;;;;50.47;22.92;;;;;;;-0.66;73.19;98210.50;5084383;28;20021;-74
2023/01/20 08:48:58;;;;;;;51.33;23.05;;;;;;;-0.62;73.32;98212.53;5066293;28;20040;-75
2023/01/20 08:51:26;;;;;;;69.55;26.52;;;;;;;-0.57;73.78;98216.38;5068663;28;20099;-75
2023/01/20 08:53:52;;;;;;;68.53;27.40;;;;;;;-0.53;73.58;98206.78;5069015;28;20487;-72
2023/01/20 08:56:18;;;;;;;69.95;27.48;;;;;;;-0.47;73.59;98208.56;5070900;28;20402;-73
2023/01/20 08:58:44;;;;;;;67.70;26.65;;;;;;;-0.41;73.83;98215.72;5070654;28;20112;-73
2023/01/20 09:01:16;;;;;;;47.80;21.13;;;;;;;-0.38;73.58;98214.44;5070557;28;20037;-73
2023/01/20 09:03:42;;;;;;;46.83;22.13;;;;;;;-0.33;73.39;98222.66;5069446;28;20459;-74
2023/01/20 09:06:08;;;;;;;57.45;26.48;;;;;;;-0.31;73.77;98215.16;5070641;28;20024;-74
2023/01/20 09:08:34;;;;;;;69.38;30.17;;;;;;;-0.30;73.52;98214.09;5070008;28;20124;-75
2023/01/20 09:11:13;;;;;;;48.55;22.33;;;;;;;-0.28;73.62;98219.28;5070780;28;20025;-75
2023/01/20 09:13:40;;;;;;;70.40;29.45;;;;;;;-0.32;72.98;98225.13;5069198;28;20036;-73
2023/01/20 09:16:06;;;;;;;217.93;75.30;;;;;;;-0.33;73.24;98222.66;5067375;28;20036;-74
2023/01/20 09:18:32;;;;;;;99.68;37.08;;;;;;;-0.33;73.75;98228.03;5070521;28;20043;-74
2023/01/20 09:20:58;;;;;;;88.45;33.13;;;;;;;-0.34;73.64;98238.00;5069800;28;20036;-74
2023/01/20 09:23:25;;;;;;;83.03;32.83;;;;;;;-0.27;73.61;98231.72;5065509;28;20025;-74
2023/01/20 09:25:50;;;;;;;62.33;25.70;;;;;;;-0.22;73.93;98218.38;5065342;28;20032;-73
2023/01/20 09:28:16;;;;;;;86.40;35.92;;;;;;;-0.18;73.84;98220.34;5068772;28;20023;-73
2023/01/20 09:30:42;;;;;;;52.60;23.27;;;;;;;-0.11;73.66;98220.22;5070803;28;20047;-74
2023/01/20 09:33:09;;;;;;;49.85;24.73;;;;;;;-0.09;73.85;98220.00;5069512;28;20047;-74
2023/01/20 09:35:35;;;;;;;45.28;21.33;;;;;;;-0.10;73.52;98219.19;5070476;28;20096;-74
2023/01/20 09:44:48;;;;;;;49.13;22.67;;;;;;;-0.14;73.69;98219.88;5039128;28;20048;-74
2023/01/20 09:47:19;;;;;;;48.35;23.38;;;;;;;-0.11;73.25;98219.44;5065511;28;20016;-74
2023/01/20 09:53:29;;;;;;;58.38;28.20;;;;;;;-0.09;73.55;98228.09;5049544;28;20052;-73
2023/01/20 09:55:58;;;;;;;60.63;27.38;;;;;;;-0.09;73.17;98217.31;5065575;28;20478;-73
2023/01/20 09:58:51;;;;;;;57.10;27.15;;;;;;;-0.10;73.22;98226.47;5060385;28;20027;-73
2023/01/20 10:01:39;;;;;;;66.95;31.35;;;;;;;-0.07;73.60;98226.00;5067781;28;20094;-72
2023/01/20 10:04:10;;;;;;;60.22;27.25;;;;;;;0.00;73.30;98226.72;5063484;28;20482;-72
2023/01/20 10:06:54;;;;;;;48.97;25.35;;;;;;;0.01;73.72;98219.44;5049793;28;20032;-73
2023/01/20 10:09:28;;;;;;;46.80;21.58;;;;;;;-0.01;73.54;98217.78;5067177;28;20029;-73
2023/01/20 10:12:48;;;;;;;46.63;22.83;;;;;;;-0.02;73.71;98215.34;5068509;28;20085;-73
2023/01/20 10:15:28;;;;;;;47.90;24.02;;;;;;;-0.05;73.46;98200.44;5011453;28;20044;-73
2023/01/20 10:17:59;;;;;;;46.10;22.35;;;;;;;-0.05;73.74;98203.13;5069700;28;20419;-73
2023/01/20 10:20:47;;;;;;;43.70;21.77;;;;;;;-0.04;73.04;98209.34;5048926;28;20222;-73
2023/01/20 10:23:20;;;;;;;48.72;22.25;;;;;;;0.02;73.46;98202.19;5070004;28;20020;-74
2023/01/20 10:26:03;;;;;;;45.33;23.27;;;;;;;0.01;73.34;98200.56;5070124;28;20394;-74
2023/01/20 10:28:36;;;;;;;44.65;23.13;;;;;;;0.03;73.37;98207.34;5069880;28;20428;-74
2023/01/20 10:31:04;;;;;;;53.35;25.48;;;;;;;0.08;73.71;98203.97;5069136;28;20089;-72
2023/01/20 10:33:35;;;;;;;52.28;24.20;;;;;;;0.09;73.14;98206.41;5068489;28;20044;-74
2023/01/20 10:36:01;;;;;;;51.75;23.55;;;;;;;0.15;73.78;98207.38;5069192;28;20032;-74
2023/01/20 10:38:45;;;;;;;42.13;21.58;;;;;;;0.18;73.68;98203.38;5066346;28;20024;-75
2023/01/20 10:41:20;;;;;;;37.70;18.80;;;;;;;0.21;73.65;98206.41;5050948;28;20360;-74
2023/01/20 10:43:47;;;;;;;37.95;17.95;;;;;;;0.23;73.33;98208.88;5068793;28;20433;-75
2023/01/20 10:46:34;;;;;;;37.10;18.70;;;;;;;0.19;73.14;98219.34;5068707;28;20057;-75
2023/01/20 10:49:27;;;;;;;38.90;19.15;;;;;;;0.22;73.19;98212.63;5068824;28;20024;-75
2023/01/20 10:52:15;;;;;;;39.70;19.08;;;;;;;0.25;73.82;98210.28;5068989;28;20126;-75
2023/01/20 10:55:17;;;;;;;32.22;17.70;;;;;;;0.29;73.42;98211.47;5068999;28;20032;-75
2023/01/20 10:57:43;;;;;;;32.78;17.38;;;;;;;0.29;73.09;98205.25;5050561;28;20119;-75
2023/01/20 11:00:22;;;;;;;33.85;17.85;;;;;;;0.31;72.99;98205.84;5069435;28;20032;-75
2023/01/20 11:02:48;;;;;;;34.97;17.00;;;;;;;0.32;73.16;98218.28;5069391;28;20078;-75
2023/01/20 11:05:19;;;;;;;33.33;18.05;;;;;;;0.34;73.37;98223.41;5068023;28;20466;-75
2023/01/20 11:07:46;;;;;;;37.10;18.63;;;;;;;0.36;73.27;98224.84;5068711;28;20075;-74
2023/01/20 11:10:21;;;;;;;32.28;16.98;;;;;;;0.36;73.24;98227.53;5071797;28;20028;-74
2023/01/20 11:12:50;;;;;;;41.35;19.45;;;;;;;0.40;73.51;98214.38;5069401;28;20279;-75
2023/01/20 11:15:22;;;;;;;43.00;19.85;;;;;;;0.42;73.29;98207.69;5072982;28;20035;-75
2023/01/20 11:18:13;;;;;;;51.55;24.58;;;;;;;0.46;73.77;98197.25;5072156;28;20024;-74
2023/01/20 11:20:47;;;;;;;72.13;33.15;;;;;;;0.50;73.14;98193.03;5072302;28;20032;-74
2023/01/20 11:23:38;;;;;;;59.13;28.35;;;;;;;0.53;72.96;98194.44;5055137;28;20055;-74
2023/01/20 11:26:08;;;;;;;60.15;26.52;;;;;;;0.56;72.93;98197.50;5070715;28;20031;-74
2023/01/20 11:28:58;;;;;;;48.42;21.77;;;;;;;0.61;73.17;98187.88;5072502;28;20093;-74
2023/01/20 11:31:43;;;;;;;47.92;23.25;;;;;;;0.67;73.42;98181.47;5068764;28;20036;-73
2023/01/20 11:34:27;;;;;;;40.15;19.88;;;;;;;0.72;73.19;98174.34;5073562;28;20486;-74
2023/01/20 11:37:04;;;;;;;39.83;18.92;;;;;;;0.77;73.30;98168.19;5072645;28;20028;-74